createdAt,value
2023-05-16T00:01:19.772Z,99850.31
2023-05-16T00:04:23.940Z,99842.00
2023-05-16T00:07:26.847Z,99837.62
2023-05-16T00:10:29.918Z,99829.66
2023-05-16T00:13:32.681Z,99817.03
2023-05-16T00:16:37.271Z,99822.19
2023-05-16T00:19:42.352Z,99822.97
2023-05-16T00:22:46.442Z,99819.41
2023-05-16T00:25:49.727Z,99826.56
2023-05-16T00:28:53.202Z,99829.34
2023-05-16T00:31:56.204Z,99835.72
2023-05-16T00:34:59.116Z,99844.06
2023-05-16T00:38:01.835Z,99849.25
2023-05-16T00:41:04.954Z,99855.63
2023-05-16T00:44:07.685Z,99860.78
2023-05-16T00:47:10.777Z,99861.19
2023-05-16T00:50:14.118Z,99861.97
2023-05-16T00:53:17.313Z,99865.97
2023-05-16T00:56:21.747Z,99865.94
2023-05-16T00:59:25.183Z,99870.31
2023-05-16T01:06:03.269Z,99830.94
2023-05-16T01:09:08.159Z,99822.97
2023-05-16T01:12:19.833Z,99819.00
2023-05-16T01:15:31.559Z,99808.66
2023-05-16T01:18:44.486Z,99803.87
2023-05-16T01:22:05.737Z,99807.06
2023-05-16T01:25:30.235Z,99813.81
2023-05-16T01:28:35.931Z,99813.47
2023-05-16T01:31:38.784Z,99811.88
2023-05-16T01:34:41.824Z,99811.06
2023-05-16T01:38:21.506Z,99810.22
2023-05-16T01:41:43.060Z,99804.28
2023-05-16T01:45:24.791Z,99790.34
2023-05-16T01:48:35.861Z,99799.09
2023-05-16T01:51:41.819Z,99797.53
2023-05-16T01:54:48.552Z,99814.25
2023-05-16T01:57:53.644Z,99813.06
2023-05-16T02:01:05.161Z,99814.62
2023-05-16T02:04:08.310Z,99811.84
2023-05-16T02:07:11.444Z,99812.25
2023-05-16T02:10:14.918Z,99818.19
2023-05-16T02:13:17.790Z,99800.72
2023-05-16T02:16:21.358Z,99800.72
2023-05-16T02:19:24.533Z,99805.88
2023-05-16T02:22:27.146Z,99792.34
2023-05-16T02:25:30.209Z,99801.50
2023-05-16T02:28:32.858Z,99805.50
2023-05-16T02:31:36.030Z,99787.97
2023-05-16T02:34:38.694Z,99784.81
2023-05-16T02:37:42.208Z,99786.00
2023-05-16T02:40:44.849Z,99793.53
2023-05-16T02:43:48.365Z,99785.59
2023-05-16T02:46:51.448Z,99781.63
2023-05-16T02:49:54.527Z,99777.25
2023-05-16T02:52:59.927Z,99784.81
2023-05-16T02:56:07.080Z,99780.81
2023-05-16T02:59:09.913Z,99783.62
2023-05-16T03:02:13.217Z,99780.44
2023-05-16T03:05:16.041Z,99786.41
2023-05-16T03:08:19.260Z,99767.31
2023-05-16T03:11:26.319Z,99756.97
2023-05-16T03:14:29.328Z,99749.03
2023-05-16T03:17:32.075Z,99737.88
2023-05-16T03:20:35.117Z,99741.06
2023-05-16T03:23:37.692Z,99746.62
2023-05-16T03:26:41.075Z,99748.66
2023-05-16T03:29:43.613Z,99734.72
2023-05-16T03:32:46.856Z,99754.59
2023-05-16T03:35:49.540Z,99757.75
2023-05-16T03:38:52.788Z,99753.41
2023-05-16T03:41:57.478Z,99751.03
2023-05-16T03:45:00.668Z,99751.81
2023-05-16T03:48:03.403Z,99765.75
2023-05-16T03:51:06.603Z,99768.09
2023-05-16T03:54:09.241Z,99762.53
2023-05-16T03:57:12.307Z,99768.53
2023-05-16T04:00:15.511Z,99765.75
2023-05-16T04:03:18.614Z,99758.59
2023-05-16T04:06:21.955Z,99772.06
2023-05-16T04:09:25.064Z,99771.28
2023-05-16T04:12:27.867Z,99767.31
2023-05-16T04:15:31.013Z,99781.63
2023-05-16T04:18:33.874Z,99780.44
2023-05-16T04:21:36.951Z,99783.62
2023-05-16T04:24:39.552Z,99785.19
2023-05-16T04:27:43.611Z,99784.81
2023-05-16T04:30:46.768Z,99782.03
2023-05-16T04:33:49.963Z,99791.97
2023-05-16T04:36:52.625Z,99793.16
2023-05-16T04:39:55.712Z,99797.94
2023-05-16T04:42:58.426Z,99808.66
2023-05-16T04:46:01.530Z,99803.87
2023-05-16T04:49:04.298Z,99790.38
2023-05-16T04:52:08.635Z,99802.31
2023-05-16T04:55:11.553Z,99804.28
2023-05-16T04:58:14.713Z,99808.25
2023-05-16T05:01:17.503Z,99806.66
2023-05-16T05:04:20.802Z,99803.50
2023-05-16T05:07:23.579Z,99803.50
2023-05-16T05:10:27.937Z,99810.22
2023-05-16T05:13:30.841Z,99794.34
2023-05-16T05:16:34.993Z,99801.50
2023-05-16T05:19:37.809Z,99802.69
2023-05-16T05:22:41.469Z,99810.25
2023-05-16T05:25:44.156Z,99817.00
2023-05-16T05:28:53.944Z,99817.41
2023-05-16T05:32:00.198Z,99824.97
2023-05-16T05:35:04.139Z,99822.56
2023-05-16T05:38:06.816Z,99825.78
2023-05-16T05:41:09.894Z,99830.12
2023-05-16T05:44:12.688Z,99821.41
2023-05-16T05:47:16.035Z,99820.59
2023-05-16T05:50:18.932Z,99821.41
2023-05-16T05:53:22.383Z,99809.47
2023-05-16T05:56:25.098Z,99797.53
2023-05-16T05:59:28.060Z,99778.44
2023-05-16T06:02:31.108Z,99787.97
2023-05-16T06:05:34.126Z,99783.19
2023-05-16T06:08:37.020Z,99777.59
2023-05-16T06:11:40.240Z,99771.25
2023-05-16T06:14:42.966Z,99769.66
2023-05-16T06:17:46.288Z,99761.66
2023-05-16T06:20:49.196Z,99754.47
2023-05-16T06:23:52.201Z,99761.66
2023-05-16T06:26:54.952Z,99761.66
2023-05-16T06:29:58.977Z,99762.44
2023-05-16T06:33:01.690Z,99760.03
2023-05-16T06:36:04.940Z,99772.37
2023-05-16T06:39:07.746Z,99764.84
2023-05-16T06:42:11.406Z,99767.25
2023-05-16T06:45:14.105Z,99777.56
2023-05-16T06:48:18.921Z,99773.97
2023-05-16T06:51:21.698Z,99776.38
2023-05-16T06:54:24.714Z,99774.78
2023-05-16T06:57:27.384Z,99772.78
2023-05-16T07:00:30.447Z,99769.56
2023-05-16T07:03:33.367Z,99758.38
2023-05-16T07:06:36.925Z,99765.53
2023-05-16T07:09:39.590Z,99763.50
2023-05-16T07:12:43.589Z,99773.00
2023-05-16T07:15:46.517Z,99762.25
2023-05-16T07:18:49.708Z,99758.25
2023-05-16T07:21:52.537Z,99755.06
2023-05-16T07:24:57.428Z,99747.06
2023-05-16T07:28:01.228Z,99744.72
2023-05-16T07:31:04.446Z,99759.88
2023-05-16T07:34:07.741Z,99768.25
2023-05-16T07:37:14.053Z,99770.72
2023-05-16T07:40:18.467Z,99773.47
2023-05-16T07:43:21.588Z,99784.59
2023-05-16T07:46:24.495Z,99783.84
2023-05-16T07:49:27.822Z,99795.75
2023-05-16T07:52:30.524Z,99785.41
2023-05-16T07:55:33.631Z,99779.03
2023-05-16T07:58:36.724Z,99784.59
2023-05-16T08:01:40.068Z,99788.94
2023-05-16T08:04:43.159Z,99778.97
2023-05-16T08:07:46.317Z,99770.56
2023-05-16T08:10:49.451Z,99766.22
2023-05-16T08:13:52.255Z,99763.38
2023-05-16T08:16:55.479Z,99755.41
2023-05-16T08:19:59.510Z,99750.22
2023-05-16T08:23:02.586Z,99741.41
2023-05-16T08:26:05.889Z,99761.00
2023-05-16T08:29:09.074Z,99766.56
2023-05-16T08:32:11.799Z,99779.31
2023-05-16T08:35:14.821Z,99778.56
2023-05-16T08:38:17.504Z,99778.72
2023-05-16T08:41:22.150Z,99768.75
2023-05-16T08:44:25.437Z,99762.00
2023-05-16T08:47:32.137Z,99749.22
2023-05-16T08:50:36.347Z,99758.41
2023-05-16T08:53:44.910Z,99762.41
2023-05-16T08:56:50.635Z,99767.66
2023-05-16T08:59:55.603Z,99785.97
2023-05-16T09:03:00.439Z,99787.91
2023-05-16T09:06:07.361Z,99786.34
2023-05-16T09:09:13.148Z,99781.16
2023-05-16T09:12:16.527Z,99782.38
2023-05-16T09:15:21.970Z,99776.78
2023-05-16T09:18:25.640Z,99771.63
2023-05-16T09:21:32.296Z,99764.03
2023-05-16T09:24:38.932Z,99772.00
2023-05-16T09:27:43.778Z,99762.06
2023-05-16T09:30:47.569Z,99759.28
2023-05-16T09:33:50.950Z,99749.34
2023-05-16T09:36:57.288Z,99740.97
2023-05-16T09:40:00.062Z,99730.62
2023-05-16T09:43:05.930Z,99729.09
2023-05-16T09:46:09.273Z,99725.84
2023-05-16T09:49:14.179Z,99725.88
2023-05-16T09:52:17.064Z,99729.06
2023-05-16T09:55:20.168Z,99722.25
2023-05-16T09:58:29.056Z,99725.47
2023-05-16T10:01:32.669Z,99732.59
2023-05-16T10:04:36.245Z,99736.19
2023-05-16T10:07:40.505Z,99730.59
2023-05-16T10:10:43.649Z,99730.66
2023-05-16T10:13:53.405Z,99730.66
2023-05-16T10:16:58.041Z,99729.06
2023-05-16T10:20:08.459Z,99725.88
2023-05-16T10:23:18.092Z,99725.88
2023-05-16T10:26:22.737Z,99711.97
2023-05-16T10:29:26.959Z,99715.16
2023-05-16T10:32:30.329Z,99724.31
2023-05-16T10:35:34.730Z,99731.88
2023-05-16T10:38:39.337Z,99732.25
2023-05-16T10:41:43.120Z,99721.09
2023-05-16T10:44:54.483Z,99726.25
2023-05-16T10:48:07.178Z,99720.69
2023-05-16T10:51:36.974Z,99711.50
2023-05-16T10:54:43.070Z,99717.81
2023-05-16T10:57:46.375Z,99714.62
2023-05-16T11:00:50.503Z,99707.81
2023-05-16T11:04:02.772Z,99694.66
2023-05-16T11:07:07.941Z,99704.22
2023-05-16T11:10:17.174Z,99705.00
2023-05-16T11:13:25.006Z,99690.69
2023-05-16T11:16:32.036Z,99682.72
2023-05-16T11:19:53.227Z,99675.94
2023-05-16T11:23:28.211Z,99678.31
2023-05-16T11:26:32.141Z,99681.13
2023-05-16T11:29:36.348Z,99674.72
2023-05-16T11:32:43.068Z,99671.13
2023-05-16T11:36:14.595Z,99673.91
2023-05-16T11:39:22.106Z,99670.72
2023-05-16T11:42:24.894Z,99665.91
2023-05-16T11:45:28.269Z,99661.12
2023-05-16T11:48:36.294Z,99667.91
2023-05-16T11:51:41.336Z,99665.50
2023-05-16T11:54:44.087Z,99661.06
2023-05-16T11:57:47.946Z,99660.63
2023-05-16T12:00:51.699Z,99658.66
2023-05-16T12:03:58.433Z,99652.28
2023-05-16T12:07:02.235Z,99664.19
2023-05-16T12:10:07.889Z,99658.59
2023-05-16T12:13:11.300Z,99655.41
2023-05-16T12:16:14.698Z,99660.19
2023-05-16T12:19:17.709Z,99648.22
2023-05-16T12:22:21.167Z,99638.62
2023-05-16T12:25:42.267Z,99637.41
2023-05-16T12:28:45.315Z,99627.03
2023-05-16T12:31:48.133Z,99625.03
2023-05-16T12:34:56.475Z,99620.63
2023-05-16T12:38:00.473Z,99624.19
2023-05-16T12:41:03.611Z,99620.53
2023-05-16T12:44:17.903Z,99626.44
2023-05-16T12:47:21.667Z,99619.63
2023-05-16T12:50:27.171Z,99621.56
2023-05-16T12:53:30.751Z,99619.97
2023-05-16T12:56:33.549Z,99620.00
2023-05-16T12:59:37.351Z,99611.63
2023-05-16T13:02:41.337Z,99614.41
2023-05-16T13:05:44.767Z,99605.13
2023-05-16T13:08:47.517Z,99603.13
2023-05-16T13:11:54.285Z,99607.84
2023-05-16T13:14:58.027Z,99599.03
2023-05-16T13:18:01.188Z,99589.91
2023-05-16T13:21:05.134Z,99586.22
2023-05-16T13:24:08.161Z,99589.31
2023-05-16T13:27:10.941Z,99576.47
2023-05-16T13:30:14.003Z,99572.81
2023-05-16T13:33:16.938Z,99562.25
2023-05-16T13:36:20.066Z,99548.94
2023-05-16T13:39:23.179Z,99551.56
2023-05-16T13:42:26.706Z,99543.56
2023-05-16T13:45:29.949Z,99538.22
2023-05-16T13:48:33.485Z,99531.66
2023-05-16T13:51:36.209Z,99537.25
2023-05-16T13:54:41.665Z,99530.84
2023-05-16T13:57:44.686Z,99527.56
2023-05-16T14:00:48.975Z,99535.34
2023-05-16T14:03:52.388Z,99544.91
2023-05-16T14:06:56.923Z,99550.13
2023-05-16T14:09:59.990Z,99543.25
2023-05-16T14:13:02.765Z,99541.19
2023-05-16T14:16:06.473Z,99535.97
2023-05-16T14:19:09.944Z,99531.47
2023-05-16T14:22:13.602Z,99530.84
2023-05-16T14:25:16.435Z,99523.13
2023-05-16T14:28:19.817Z,99515.22
2023-05-16T14:31:22.690Z,99520.16
2023-05-16T14:34:26.108Z,99514.81
2023-05-16T14:37:28.930Z,99514.41
2023-05-16T14:40:32.618Z,99511.56
2023-05-16T14:43:35.755Z,99509.91
2023-05-16T14:46:42.131Z,99521.34
2023-05-16T14:49:45.028Z,99519.81
2023-05-16T14:52:48.120Z,99516.44
2023-05-16T14:55:50.894Z,99502.81
2023-05-16T14:58:54.450Z,99504.34
2023-05-16T15:01:57.560Z,99496.28
2023-05-16T15:05:00.836Z,99493.09
2023-05-16T15:08:03.826Z,99492.25
2023-05-16T15:11:06.938Z,99477.25
2023-05-16T15:14:09.674Z,99479.06
2023-05-16T15:17:12.840Z,99467.03
2023-05-16T15:20:15.962Z,99467.13
2023-05-16T15:23:19.184Z,99466.56
2023-05-16T15:26:23.052Z,99464.16
2023-05-16T15:29:26.515Z,99467.19
2023-05-16T15:32:29.371Z,99461.91
2023-05-16T15:35:32.755Z,99459.22
2023-05-16T15:38:36.639Z,99462.09
2023-05-16T15:42:05.181Z,99462.50
2023-05-16T15:45:03.422Z,99460.09
2023-05-16T15:48:06.854Z,99462.31
2023-05-16T15:51:09.764Z,99466.41
2023-05-16T15:54:13.077Z,99467.63
2023-05-16T15:57:15.876Z,99463.16
2023-05-16T16:00:19.437Z,99465.19
2023-05-16T16:03:22.846Z,99455.66
2023-05-16T16:06:25.780Z,99455.94
2023-05-16T16:09:28.899Z,99450.56
2023-05-16T16:12:31.940Z,99448.50
2023-05-16T16:15:36.078Z,99443.78
2023-05-16T16:18:39.215Z,99441.16
2023-05-16T16:21:42.354Z,99442.47
2023-05-16T16:24:45.138Z,99442.59
2023-05-16T16:27:48.656Z,99430.53
2023-05-16T16:30:51.438Z,99428.13
2023-05-16T16:33:55.078Z,99421.87
2023-05-16T16:36:57.768Z,99421.69
2023-05-16T16:40:01.309Z,99414.94
2023-05-16T16:43:07.122Z,99409.06
2023-05-16T16:46:10.220Z,99416.66
2023-05-16T16:49:13.655Z,99413.50
2023-05-16T16:52:16.670Z,99418.28
2023-05-16T16:55:19.771Z,99413.91
2023-05-16T16:58:22.850Z,99403.00
2023-05-16T17:01:28.202Z,99415.69
2023-05-16T17:04:35.170Z,99420.28
2023-05-16T17:07:38.000Z,99426.66
2023-05-16T17:10:41.137Z,99422.28
2023-05-16T17:13:44.746Z,99417.19
2023-05-16T17:16:47.871Z,99421.06
2023-05-16T17:19:50.874Z,99434.69
2023-05-16T17:22:54.253Z,99433.12
2023-05-16T17:25:57.408Z,99428.38
2023-05-16T17:29:00.804Z,99447.03
2023-05-16T17:32:03.742Z,99438.66
2023-05-16T17:35:07.642Z,99419.50
2023-05-16T17:38:11.532Z,99431.00
2023-05-16T17:41:15.351Z,99413.75
2023-05-16T17:44:18.897Z,99421.37
2023-05-16T17:47:22.325Z,99432.62
2023-05-16T17:50:26.099Z,99433.12
2023-05-16T17:53:29.926Z,99439.34
2023-05-16T17:56:32.919Z,99448.06
2023-05-16T17:59:37.370Z,99456.59
2023-05-16T18:02:40.578Z,99457.41
2023-05-16T18:05:44.357Z,99451.00
2023-05-16T18:08:47.514Z,99440.22
2023-05-16T18:11:50.593Z,99449.50
2023-05-16T18:14:53.474Z,99442.00
2023-05-16T18:17:57.040Z,99439.69
2023-05-16T18:20:59.991Z,99445.28
2023-05-16T18:24:03.264Z,99434.50
2023-05-16T18:27:07.577Z,99445.28
2023-05-16T18:30:13.249Z,99456.81
2023-05-16T18:33:17.104Z,99455.97
2023-05-16T18:36:20.855Z,99444.66
2023-05-16T18:39:24.207Z,99450.53
2023-05-16T18:42:27.995Z,99458.50
2023-05-16T18:45:31.762Z,99466.97
2023-05-16T18:48:36.309Z,99473.09
2023-05-16T18:51:40.509Z,99460.81
2023-05-16T18:54:43.993Z,99457.19
2023-05-16T18:57:47.911Z,99454.00
2023-05-16T19:00:52.810Z,99461.16
2023-05-16T19:03:58.213Z,99452.91
2023-05-16T19:07:04.151Z,99445.53
2023-05-16T19:10:08.699Z,99448.06
2023-05-16T19:13:12.237Z,99437.69
2023-05-16T19:16:15.646Z,99427.66
2023-05-16T19:19:20.729Z,99438.94
2023-05-16T19:22:24.239Z,99436.63
2023-05-16T19:25:31.520Z,99440.59
2023-05-16T19:28:35.177Z,99429.06
2023-05-16T19:31:40.080Z,99446.97
2023-05-16T19:34:43.922Z,99447.41
2023-05-16T19:37:47.156Z,99462.41
2023-05-16T19:40:50.506Z,99470.00
2023-05-16T19:43:53.774Z,99476.56
2023-05-16T19:46:56.566Z,99475.06
2023-05-16T19:49:59.609Z,99470.91
2023-05-16T19:53:02.959Z,99446.97
2023-05-16T19:56:06.854Z,99447.44
2023-05-16T19:59:09.646Z,99453.47
2023-05-16T20:02:12.850Z,99457.00
2023-05-16T20:05:20.192Z,99456.22
2023-05-16T20:08:23.454Z,99448.22
2023-05-16T20:11:26.789Z,99425.53
2023-05-16T20:14:29.975Z,99433.50
2023-05-16T20:17:33.515Z,99449.53
2023-05-16T20:20:36.402Z,99442.06
2023-05-16T20:23:41.262Z,99440.34
2023-05-16T20:26:44.157Z,99420.78
2023-05-16T20:29:49.605Z,99424.22
2023-05-16T20:32:52.422Z,99426.94
2023-05-16T20:35:55.677Z,99414.03
2023-05-16T20:38:58.401Z,99415.47
2023-05-16T20:42:01.477Z,99422.75
2023-05-16T20:45:04.951Z,99431.03
2023-05-16T20:48:08.582Z,99427.16
2023-05-16T20:51:11.528Z,99422.03
2023-05-16T20:54:14.550Z,99422.03
2023-05-16T20:57:17.961Z,99419.06
2023-05-16T21:00:21.242Z,99421.06
2023-05-16T21:03:24.047Z,99432.16
2023-05-16T21:06:27.095Z,99416.28
2023-05-16T21:09:29.806Z,99429.91
2023-05-16T21:12:32.841Z,99435.09
2023-05-16T21:15:35.661Z,99430.78
2023-05-16T21:18:39.304Z,99434.06
2023-05-16T21:21:42.647Z,99425.16
2023-05-16T21:24:45.611Z,99425.97
2023-05-16T21:27:48.375Z,99431.00
2023-05-16T21:30:51.495Z,99437.75
2023-05-16T21:33:54.651Z,99428.84
2023-05-16T21:36:58.854Z,99420.81
2023-05-16T21:40:02.027Z,99415.97
2023-05-16T21:43:05.563Z,99420.69
2023-05-16T21:46:08.243Z,99424.22
2023-05-16T21:49:11.838Z,99425.28
2023-05-16T21:52:14.661Z,99419.69
2023-05-16T21:55:17.894Z,99417.16
2023-05-16T21:58:20.822Z,99427.38
2023-05-16T22:01:28.320Z,99423.16
2023-05-16T22:04:31.776Z,99422.59
2023-05-16T22:07:34.583Z,99420.59
2023-05-16T22:10:37.809Z,99416.09
2023-05-16T22:13:40.584Z,99411.72
2023-05-16T22:16:43.610Z,99419.44
2023-05-16T22:19:47.306Z,99420.03
2023-05-16T22:22:51.061Z,99417.75
2023-05-16T22:25:54.356Z,99424.28
2023-05-16T22:28:57.679Z,99433.25
2023-05-16T22:32:00.448Z,99418.28
2023-05-16T22:35:03.652Z,99420.34
2023-05-16T22:38:06.414Z,99435.19
2023-05-16T22:41:09.538Z,99434.16
2023-05-16T22:44:12.262Z,99441.00
2023-05-16T22:47:15.428Z,99442.56
2023-05-16T22:50:18.193Z,99441.75
2023-05-16T22:53:21.505Z,99442.06
2023-05-16T22:56:24.265Z,99446.81
2023-05-16T22:59:27.399Z,99453.19
2023-05-16T23:02:30.302Z,99462.28
2023-05-16T23:05:33.463Z,99469.09
2023-05-16T23:08:36.307Z,99482.50
2023-05-16T23:11:39.516Z,99474.38
2023-05-16T23:14:42.555Z,99472.41
2023-05-16T23:17:46.336Z,99468.19
2023-05-16T23:20:49.112Z,99471.31
2023-05-16T23:23:52.178Z,99475.22
2023-05-16T23:26:54.930Z,99476.84
2023-05-16T23:29:58.417Z,99476.56
2023-05-16T23:33:01.524Z,99472.06
2023-05-16T23:36:05.035Z,99467.16
2023-05-16T23:39:08.477Z,99471.81
2023-05-16T23:42:11.648Z,99463.59
2023-05-16T23:45:14.354Z,99465.47
2023-05-16T23:48:17.539Z,99456.94
2023-05-16T23:51:21.861Z,99459.37
2023-05-16T23:54:25.676Z,99458.44
2023-05-16T23:57:28.303Z,99461.75
